createdAt,value
2019-03-06T00:01:00.845Z,96486.79
2019-03-06T00:03:27.239Z,96490.03
2019-03-06T00:05:53.885Z,96497.89
2019-03-06T00:08:20.487Z,96490.36
2019-03-06T00:10:47.064Z,96493.36
2019-03-06T00:13:13.756Z,96500.88
2019-03-06T00:15:40.280Z,96500.08
2019-03-06T00:18:06.713Z,96496.35
2019-03-06T00:20:33.095Z,96501.73
2019-03-06T00:22:59.640Z,96503.63
2019-03-06T00:25:26.310Z,96504.17
2019-03-06T00:27:52.804Z,96506.38
2019-03-06T00:30:19.695Z,96509.31
2019-03-06T00:32:46.146Z,96509.31
2019-03-06T00:35:24.357Z,96506.62
2019-03-06T00:37:50.875Z,96508.46
2019-03-06T00:40:36.343Z,96508.70
2019-03-06T00:43:03.037Z,96511.41
2019-03-06T00:45:29.533Z,96512.75
2019-03-06T00:47:56.126Z,96514.25
2019-03-06T00:50:22.683Z,96513.70
2019-03-06T00:52:49.195Z,96512.36
2019-03-06T00:55:16.038Z,96522.58
2019-03-06T00:57:42.573Z,96524.72
2019-03-06T01:00:26.056Z,96526.31
2019-03-06T01:02:53.317Z,96522.72
2019-03-06T01:05:20.308Z,96527.52
2019-03-06T01:07:47.043Z,96529.91
2019-03-06T01:10:14.860Z,96526.91
2019-03-06T01:12:41.449Z,96533.04
2019-03-06T01:15:10.439Z,96538.67
2019-03-06T01:17:36.973Z,96542.63
2019-03-06T01:20:07.292Z,96540.97
2019-03-06T01:22:33.935Z,96540.42
2019-03-06T01:25:00.494Z,96543.36
2019-03-06T01:27:27.110Z,96545.50
2019-03-06T01:29:53.746Z,96548.20
2019-03-06T01:32:20.592Z,96549.30
2019-03-06T01:34:54.659Z,96550.15
2019-03-06T01:37:22.977Z,96549.05
2019-03-06T01:39:57.196Z,96554.19
2019-03-06T01:42:25.678Z,96557.43
2019-03-06T01:44:52.517Z,96553.33
2019-03-06T01:47:19.079Z,96564.35
2019-03-06T01:49:45.792Z,96564.60
2019-03-06T01:52:12.329Z,96566.20
2019-03-06T01:54:38.702Z,96565.95
2019-03-06T01:57:05.399Z,96570.28
2019-03-06T01:59:32.118Z,96572.92
2019-03-06T02:01:58.571Z,96567.20
2019-03-06T02:04:25.085Z,96570.94
2019-03-06T02:06:51.804Z,96569.59
2019-03-06T02:09:19.717Z,96573.88
2019-03-06T02:11:46.452Z,96573.83
2019-03-06T02:14:12.886Z,96575.97
2019-03-06T02:16:39.219Z,96580.02
2019-03-06T02:19:06.365Z,96581.02
2019-03-06T02:21:32.902Z,96583.97
2019-03-06T02:23:59.334Z,96587.45
2019-03-06T02:26:26.503Z,96589.35
2019-03-06T02:28:52.814Z,96594.44
2019-03-06T02:31:19.555Z,96592.84
2019-03-06T02:33:46.091Z,96597.98
2019-03-06T02:36:12.535Z,96596.42
2019-03-06T02:38:39.060Z,96602.41
2019-03-06T02:41:05.596Z,96603.27
2019-03-06T02:43:32.540Z,96608.95
2019-03-06T02:45:59.075Z,96610.55
2019-03-06T02:48:25.711Z,96615.38
2019-03-06T02:50:52.350Z,96618.87
2019-03-06T02:53:18.987Z,96620.77
2019-03-06T02:55:45.829Z,96633.88
2019-03-06T02:58:23.016Z,96624.45
2019-03-06T03:00:57.948Z,96635.77
2019-03-06T03:03:26.439Z,96628.84
2019-03-06T03:06:13.546Z,96630.58
2019-03-06T03:08:39.986Z,96631.97
2019-03-06T03:11:06.618Z,96635.59
2019-03-06T03:13:33.253Z,96635.59
2019-03-06T03:15:59.690Z,96634.55
2019-03-06T03:18:26.530Z,96635.34
2019-03-06T03:20:53.474Z,96633.13
2019-03-06T03:23:20.110Z,96642.50
2019-03-06T03:25:46.650Z,96648.67
2019-03-06T03:28:13.166Z,96656.16
2019-03-06T03:30:39.615Z,96660.99
2019-03-06T03:33:06.463Z,96661.21
2019-03-06T03:35:33.229Z,96662.25
2019-03-06T03:37:59.958Z,96663.05
2019-03-06T03:40:26.678Z,96668.69
2019-03-06T03:42:53.931Z,96670.28
2019-03-06T03:45:20.647Z,96667.53
2019-03-06T03:47:47.217Z,96680.92
2019-03-06T03:50:13.845Z,96686.55
2019-03-06T03:52:40.792Z,96690.30
2019-03-06T03:55:15.124Z,96693.48
2019-03-06T03:57:42.053Z,96710.12
2019-03-06T04:00:16.063Z,96702.03
2019-03-06T04:02:42.621Z,96706.88
2019-03-06T04:05:11.283Z,96713.01
2019-03-06T04:07:37.923Z,96716.80
2019-03-06T04:10:09.762Z,96718.45
2019-03-06T04:12:36.725Z,96715.45
2019-03-06T04:15:08.511Z,96724.08
2019-03-06T04:17:35.726Z,96724.08
2019-03-06T04:20:04.186Z,96735.61
2019-03-06T04:22:30.952Z,96744.19
2019-03-06T04:24:57.455Z,96738.55
2019-03-06T04:27:24.285Z,96746.63
2019-03-06T04:29:50.952Z,96751.72
2019-03-06T04:32:17.943Z,96748.22
2019-03-06T04:34:44.400Z,96756.86
2019-03-06T04:37:10.792Z,96753.91
2019-03-06T04:39:37.219Z,96751.52
2019-03-06T04:42:03.831Z,96752.36
2019-03-06T04:44:30.152Z,96765.83
2019-03-06T04:46:56.579Z,96768.53
2019-03-06T04:49:22.878Z,96773.20
2019-03-06T04:51:49.369Z,96771.34
2019-03-06T04:54:15.816Z,96778.08
2019-03-06T04:56:42.287Z,96776.78
2019-03-06T04:59:08.722Z,96783.81
2019-03-06T05:01:35.031Z,96780.66
2019-03-06T05:04:01.433Z,96772.12
2019-03-06T05:06:27.831Z,96775.81
2019-03-06T05:08:54.566Z,96784.94
2019-03-06T05:11:20.967Z,96788.98
2019-03-06T05:13:47.407Z,96794.67
2019-03-06T05:16:13.743Z,96797.11
2019-03-06T05:18:45.021Z,96803.34
2019-03-06T05:21:11.353Z,96804.52
2019-03-06T05:23:37.994Z,96804.35
2019-03-06T05:26:04.505Z,96807.16
2019-03-06T05:28:31.084Z,96810.45
2019-03-06T05:30:57.675Z,96810.81
2019-03-06T05:33:24.258Z,96814.61
2019-03-06T05:36:27.126Z,96817.89
2019-03-06T05:39:06.591Z,96819.02
2019-03-06T05:41:32.999Z,96820.11
2019-03-06T05:43:59.451Z,96821.92
2019-03-06T05:46:25.787Z,96827.09
2019-03-06T05:48:52.188Z,96822.55
2019-03-06T05:51:18.619Z,96833.02
2019-03-06T05:53:45.063Z,96830.87
2019-03-06T05:56:11.483Z,96839.20
2019-03-06T05:58:37.794Z,96842.11
2019-03-06T06:01:04.479Z,96847.75
2019-03-06T06:03:30.980Z,96840.77
2019-03-06T06:05:57.509Z,96840.77
2019-03-06T06:08:24.007Z,96843.42
2019-03-06T06:10:50.549Z,96846.36
2019-03-06T06:13:16.994Z,96849.02
2019-03-06T06:15:43.375Z,96849.02
2019-03-06T06:18:09.880Z,96854.88
2019-03-06T06:20:36.268Z,96859.96
2019-03-06T06:23:03.095Z,96864.21
2019-03-06T06:25:31.536Z,96868.50
2019-03-06T06:27:58.074Z,96860.90
2019-03-06T06:30:25.155Z,96860.31
2019-03-06T06:32:51.999Z,96860.44
2019-03-06T06:35:18.432Z,96865.38
2019-03-06T06:37:44.860Z,96861.46
2019-03-06T06:40:14.559Z,96866.94
2019-03-06T06:42:41.198Z,96864.07
2019-03-06T06:45:14.226Z,96871.69
2019-03-06T06:48:13.328Z,96877.70
2019-03-06T06:51:01.743Z,96878.33
2019-03-06T06:53:33.612Z,96878.15
2019-03-06T06:56:50.308Z,96888.20
2019-03-06T06:59:43.547Z,96885.92
2019-03-06T07:02:58.559Z,96886.38
2019-03-06T07:05:29.640Z,96894.38
2019-03-06T07:08:00.786Z,96892.94
2019-03-06T07:10:45.575Z,96901.64
2019-03-06T07:13:12.348Z,96902.37
2019-03-06T07:15:55.843Z,96896.23
2019-03-06T07:18:26.880Z,96897.53
2019-03-06T07:21:10.032Z,96896.61
2019-03-06T07:23:56.545Z,96894.86
2019-03-06T07:26:24.552Z,96900.23
2019-03-06T07:28:51.055Z,96905.06
2019-03-06T07:31:28.271Z,96899.02
2019-03-06T07:33:56.474Z,96899.47
2019-03-06T07:36:41.563Z,96905.73
2019-03-06T07:39:10.063Z,96904.99
2019-03-06T07:41:38.541Z,96908.02
2019-03-06T07:44:07.130Z,96899.86
2019-03-06T07:46:50.371Z,96894.58
2019-03-06T07:49:21.631Z,96898.23
2019-03-06T07:51:56.505Z,96895.08
2019-03-06T07:54:24.719Z,96892.80
2019-03-06T07:56:56.097Z,96893.91
2019-03-06T07:59:22.584Z,96896.48
2019-03-06T08:02:03.437Z,96894.93
2019-03-06T08:04:30.100Z,96899.87
2019-03-06T08:06:58.579Z,96900.95
2019-03-06T08:09:25.026Z,96900.84
2019-03-06T08:11:57.551Z,96907.73
2019-03-06T08:14:38.050Z,96910.93
2019-03-06T08:17:06.480Z,96917.09
2019-03-06T08:19:51.247Z,96920.56
2019-03-06T08:22:19.652Z,96915.16
2019-03-06T08:24:47.863Z,96909.19
2019-03-06T08:27:14.376Z,96916.22
2019-03-06T08:29:41.143Z,96915.78
2019-03-06T08:32:09.347Z,96912.78
2019-03-06T08:34:36.099Z,96926.30
2019-03-06T08:37:02.530Z,96924.64
2019-03-06T08:39:29.026Z,96928.27
2019-03-06T08:41:55.462Z,96935.87
2019-03-06T08:44:21.795Z,96938.15
2019-03-06T08:47:02.396Z,96940.92
2019-03-06T08:49:38.006Z,96941.70
2019-03-06T08:52:04.504Z,96940.11
2019-03-06T08:54:44.816Z,96942.48
2019-03-06T08:57:29.771Z,96939.48
2019-03-06T08:59:58.185Z,96933.34
2019-03-06T09:02:35.553Z,96931.58
2019-03-06T09:05:22.680Z,96938.72
2019-03-06T09:07:50.886Z,96936.30
2019-03-06T09:10:23.986Z,96942.46
2019-03-06T09:12:54.926Z,96948.66
2019-03-06T09:15:32.308Z,96944.76
2019-03-06T09:18:09.382Z,96941.04
2019-03-06T09:20:46.892Z,96941.12
2019-03-06T09:23:23.493Z,96944.76
2019-03-06T09:25:51.215Z,96944.39
2019-03-06T09:28:17.744Z,96948.11
2019-03-06T09:30:48.642Z,96948.34
2019-03-06T09:33:22.945Z,96948.50
2019-03-06T09:35:51.248Z,96947.75
2019-03-06T09:38:31.398Z,96956.03
2019-03-06T09:41:00.103Z,96955.13
2019-03-06T09:43:31.407Z,96953.55
2019-03-06T09:46:03.212Z,96956.75
2019-03-06T09:48:48.144Z,96957.31
2019-03-06T09:51:28.470Z,96961.13
2019-03-06T09:53:57.018Z,96959.78
2019-03-06T09:56:25.302Z,96954.70
2019-03-06T09:59:02.414Z,96959.56
2019-03-06T10:01:31.091Z,96953.88
2019-03-06T10:03:59.393Z,96955.22
2019-03-06T10:06:27.716Z,96955.46
2019-03-06T10:08:58.840Z,96957.72
2019-03-06T10:11:39.827Z,96953.16
2019-03-06T10:14:20.630Z,96948.36
2019-03-06T10:16:49.215Z,96963.10
2019-03-06T10:19:29.984Z,96958.65
2019-03-06T10:21:59.188Z,96957.36
2019-03-06T10:24:25.311Z,96961.42
2019-03-06T10:26:51.778Z,96967.33
2019-03-06T10:29:18.448Z,96954.19
2019-03-06T10:31:44.858Z,96960.32
2019-03-06T10:34:11.553Z,96946.72
2019-03-06T10:36:38.161Z,96962.39
2019-03-06T10:39:05.069Z,96958.10
2019-03-06T10:41:31.878Z,96960.20
2019-03-06T10:43:59.133Z,96954.52
2019-03-06T10:46:25.843Z,96955.10
2019-03-06T10:48:52.450Z,96955.69
2019-03-06T10:51:19.188Z,96954.56
2019-03-06T10:53:46.593Z,96958.86
2019-03-06T10:56:13.527Z,96957.84
2019-03-06T10:58:40.123Z,96953.64
2019-03-06T11:01:07.742Z,96948.42
2019-03-06T11:03:39.055Z,96944.44
2019-03-06T11:06:06.058Z,96943.98
2019-03-06T11:08:32.709Z,96941.60
2019-03-06T11:10:59.383Z,96935.47
2019-03-06T11:13:26.107Z,96937.06
2019-03-06T11:15:55.665Z,96936.49
2019-03-06T11:18:21.479Z,96945.69
2019-03-06T11:20:48.002Z,96942.38
2019-03-06T11:23:14.603Z,96933.86
2019-03-06T11:25:41.469Z,96934.43
2019-03-06T11:28:10.983Z,96931.59
2019-03-06T11:30:57.997Z,96924.10
2019-03-06T11:33:25.019Z,96924.13
2019-03-06T11:35:58.043Z,96914.39
2019-03-06T11:38:25.277Z,96914.81
2019-03-06T11:40:51.706Z,96911.84
2019-03-06T11:43:18.190Z,96908.97
2019-03-06T11:45:45.098Z,96902.53
2019-03-06T11:48:11.782Z,96905.94
2019-03-06T11:50:41.136Z,96895.81
2019-03-06T11:53:07.683Z,96900.91
2019-03-06T11:55:34.526Z,96905.57
2019-03-06T11:58:01.062Z,96898.91
2019-03-06T12:00:30.773Z,96899.81
2019-03-06T12:02:57.499Z,96902.67
2019-03-06T12:05:24.300Z,96891.58
2019-03-06T12:07:50.834Z,96881.25
2019-03-06T12:10:18.141Z,96882.50
2019-03-06T12:12:44.705Z,96891.44
2019-03-06T12:15:12.580Z,96889.66
2019-03-06T12:17:38.968Z,96887.49
2019-03-06T12:20:08.594Z,96882.05
2019-03-06T12:22:35.099Z,96879.66
2019-03-06T12:25:01.860Z,96875.92
2019-03-06T12:27:28.616Z,96873.31
2019-03-06T12:29:55.274Z,96878.89
2019-03-06T12:32:21.613Z,96867.86
2019-03-06T12:34:48.371Z,96872.98
2019-03-06T12:37:15.079Z,96862.33
2019-03-06T12:39:42.220Z,96864.25
2019-03-06T12:42:14.330Z,96861.53
2019-03-06T12:44:37.011Z,96857.45
2019-03-06T12:47:03.921Z,96855.52
2019-03-06T12:49:32.491Z,96856.66
2019-03-06T12:51:59.019Z,96851.33
2019-03-06T12:54:25.505Z,96859.50
2019-03-06T12:56:52.146Z,96852.23
2019-03-06T12:59:18.709Z,96849.28
2019-03-06T13:01:45.587Z,96850.53
2019-03-06T13:04:12.388Z,96850.08
2019-03-06T13:06:38.794Z,96849.36
2019-03-06T13:09:11.156Z,96838.05
2019-03-06T13:11:37.748Z,96835.09
2019-03-06T13:14:04.657Z,96825.45
2019-03-06T13:16:31.630Z,96823.64
2019-03-06T13:18:58.679Z,96810.53
2019-03-06T13:21:25.283Z,96813.03
2019-03-06T13:23:51.696Z,96813.03
2019-03-06T13:26:18.223Z,96798.63
2019-03-06T13:28:44.536Z,96798.63
2019-03-06T13:31:11.130Z,96800.44
2019-03-06T13:33:42.058Z,96774.95
2019-03-06T13:36:09.163Z,96795.91
2019-03-06T13:38:35.500Z,96793.86
2019-03-06T13:41:01.967Z,96787.39
2019-03-06T13:43:28.497Z,96786.63
2019-03-06T13:45:54.911Z,96772.66
2019-03-06T13:48:21.309Z,96758.05
2019-03-06T13:50:47.850Z,96770.73
2019-03-06T13:53:20.217Z,96772.62
2019-03-06T13:55:42.679Z,96776.94
2019-03-06T13:58:09.287Z,96768.09
2019-03-06T14:00:35.745Z,96762.45
2019-03-06T14:03:02.608Z,96770.16
2019-03-06T14:05:29.365Z,96770.16
2019-03-06T14:07:56.933Z,96774.16
2019-03-06T14:10:24.685Z,96766.33
2019-03-06T14:12:51.463Z,96758.62
2019-03-06T14:15:18.620Z,96756.84
2019-03-06T14:17:45.372Z,96744.81
2019-03-06T14:20:20.194Z,96743.14
2019-03-06T14:22:46.916Z,96737.59
2019-03-06T14:25:14.708Z,96728.20
2019-03-06T14:27:42.005Z,96734.78
2019-03-06T14:30:21.161Z,96733.76
2019-03-06T14:32:48.527Z,96725.38
2019-03-06T14:35:15.336Z,96714.48
2019-03-06T14:37:42.238Z,96711.77
2019-03-06T14:40:23.271Z,96712.22
2019-03-06T14:42:50.376Z,96701.11
2019-03-06T14:45:17.209Z,96697.59
2019-03-06T14:47:43.699Z,96699.08
2019-03-06T14:50:10.351Z,96694.20
2019-03-06T14:52:36.957Z,96692.64
2019-03-06T14:55:09.585Z,96683.46
2019-03-06T14:57:36.173Z,96682.10
2019-03-06T15:00:06.771Z,96676.20
2019-03-06T15:02:34.716Z,96668.53
2019-03-06T15:05:01.557Z,96671.70
2019-03-06T15:07:28.217Z,96669.89
2019-03-06T15:09:54.605Z,96661.88
2019-03-06T15:12:21.242Z,96657.91
2019-03-06T15:14:47.833Z,96653.94
2019-03-06T15:17:14.491Z,96651.70
2019-03-06T15:19:40.914Z,96649.89
2019-03-06T15:22:07.538Z,96650.00
2019-03-06T15:24:40.935Z,96645.84
2019-03-06T15:27:02.360Z,96645.49
2019-03-06T15:29:28.807Z,96650.95
2019-03-06T15:31:55.545Z,96645.77
2019-03-06T15:34:23.007Z,96642.28
2019-03-06T15:36:49.722Z,96641.14
2019-03-06T15:39:26.213Z,96645.23
2019-03-06T15:42:00.071Z,96636.53
2019-03-06T15:44:21.348Z,96632.02
2019-03-06T15:46:48.173Z,96632.59
2019-03-06T15:49:14.568Z,96634.50
2019-03-06T15:51:41.207Z,96632.13
2019-03-06T15:54:08.040Z,96625.48
2019-03-06T15:56:34.780Z,96627.39
2019-03-06T15:59:01.492Z,96625.94
2019-03-06T16:01:28.723Z,96616.44
2019-03-06T16:03:55.446Z,96609.04
2019-03-06T16:06:22.072Z,96603.05
2019-03-06T16:08:48.670Z,96611.76
2019-03-06T16:11:15.202Z,96605.55
2019-03-06T16:13:41.761Z,96596.02
2019-03-06T16:16:08.283Z,96600.09
2019-03-06T16:18:34.722Z,96601.34
2019-03-06T16:21:01.624Z,96601.21
2019-03-06T16:23:28.271Z,96593.53
2019-03-06T16:25:54.741Z,96592.61
2019-03-06T16:28:21.214Z,96597.70
2019-03-06T16:30:47.607Z,96604.91
2019-03-06T16:33:14.115Z,96612.70
2019-03-06T16:35:40.805Z,96611.11
2019-03-06T16:38:07.233Z,96612.89
2019-03-06T16:40:33.898Z,96619.66
2019-03-06T16:43:00.317Z,96616.25
2019-03-06T16:45:28.843Z,96613.42
2019-03-06T16:47:55.452Z,96610.34
2019-03-06T16:50:22.559Z,96603.55
2019-03-06T16:52:49.225Z,96608.50
2019-03-06T16:55:17.500Z,96597.65
2019-03-06T16:57:44.587Z,96593.80
2019-03-06T17:00:32.011Z,96586.09
2019-03-06T17:03:09.195Z,96592.98
2019-03-06T17:05:35.987Z,96597.47
2019-03-06T17:08:03.574Z,96600.86
2019-03-06T17:10:31.975Z,96603.19
2019-03-06T17:12:58.652Z,96601.37
2019-03-06T17:15:27.779Z,96602.05
2019-03-06T17:17:54.771Z,96598.64
2019-03-06T17:20:29.461Z,96597.61
2019-03-06T17:22:56.934Z,96588.58
2019-03-06T17:25:25.946Z,96596.34
2019-03-06T17:27:52.172Z,96591.11
2019-03-06T17:30:26.505Z,96593.23
2019-03-06T17:32:58.519Z,96583.61
2019-03-06T17:35:26.256Z,96579.75
2019-03-06T17:37:52.882Z,96578.84
2019-03-06T17:40:19.688Z,96575.42
2019-03-06T17:42:46.293Z,96581.72
2019-03-06T17:45:15.133Z,96573.80
2019-03-06T17:47:41.927Z,96566.22
2019-03-06T17:50:11.907Z,96568.30
2019-03-06T17:52:38.622Z,96561.50
2019-03-06T17:55:07.184Z,96548.17
2019-03-06T17:57:33.576Z,96547.34
2019-03-06T17:59:59.917Z,96546.72
2019-03-06T18:02:26.679Z,96548.98
2019-03-06T18:04:53.167Z,96538.80
2019-03-06T18:07:19.455Z,96540.55
2019-03-06T18:09:46.111Z,96539.31
2019-03-06T18:12:12.508Z,96533.75
2019-03-06T18:14:39.127Z,96539.84
2019-03-06T18:17:05.616Z,96527.39
2019-03-06T18:19:32.044Z,96535.16
2019-03-06T18:21:58.447Z,96526.77
2019-03-06T18:24:25.183Z,96520.20
2019-03-06T18:26:51.639Z,96521.62
2019-03-06T18:29:18.148Z,96519.91
2019-03-06T18:31:44.686Z,96519.91
2019-03-06T18:34:11.193Z,96515.63
2019-03-06T18:36:38.731Z,96516.73
2019-03-06T18:39:07.366Z,96517.84
2019-03-06T18:41:33.653Z,96514.91
2019-03-06T18:44:00.232Z,96508.02
2019-03-06T18:46:26.852Z,96506.52
2019-03-06T18:48:53.189Z,96500.42
2019-03-06T18:51:19.499Z,96493.83
2019-03-06T18:53:45.918Z,96494.17
2019-03-06T18:56:12.440Z,96495.73
2019-03-06T18:58:38.788Z,96494.06
2019-03-06T19:01:05.597Z,96487.55
2019-03-06T19:03:32.303Z,96494.23
2019-03-06T19:05:58.945Z,96495.47
2019-03-06T19:08:31.257Z,96491.25
2019-03-06T19:10:54.025Z,96484.54
2019-03-06T19:13:20.838Z,96486.84
2019-03-06T19:15:47.267Z,96487.05
2019-03-06T19:18:13.601Z,96484.34
2019-03-06T19:20:40.308Z,96486.73
2019-03-06T19:23:07.036Z,96485.77
2019-03-06T19:25:33.635Z,96476.43
2019-03-06T19:28:00.090Z,96483.11
2019-03-06T19:30:26.791Z,96475.67
2019-03-06T19:32:53.613Z,96466.92
2019-03-06T19:35:22.419Z,96468.75
2019-03-06T19:37:49.123Z,96465.25
2019-03-06T19:40:17.609Z,96468.03
2019-03-06T19:42:44.548Z,96463.30
2019-03-06T19:45:20.165Z,96464.42
2019-03-06T19:47:47.028Z,96459.66
2019-03-06T19:50:21.910Z,96456.23
2019-03-06T19:52:48.693Z,96457.59
2019-03-06T19:55:17.150Z,96452.19
2019-03-06T19:58:00.002Z,96449.48
2019-03-06T20:00:29.557Z,96443.08
2019-03-06T20:05:28.193Z,96437.28
2019-03-06T20:07:54.590Z,96438.39
2019-03-06T20:10:21.805Z,96432.07
2019-03-06T20:12:48.508Z,96426.66
2019-03-06T20:15:17.461Z,96425.31
2019-03-06T20:17:44.170Z,96425.55
2019-03-06T20:20:15.660Z,96427.78
2019-03-06T20:22:42.012Z,96425.64
2019-03-06T20:25:10.128Z,96421.58
2019-03-06T20:27:36.951Z,96429.41
2019-03-06T20:30:14.964Z,96426.18
2019-03-06T20:32:41.779Z,96419.37
2019-03-06T20:35:08.582Z,96417.38
2019-03-06T20:37:35.141Z,96421.02
2019-03-06T20:40:02.280Z,96421.08
2019-03-06T20:42:29.085Z,96409.11
2019-03-06T20:44:55.708Z,96405.12
2019-03-06T20:47:22.015Z,96396.23
2019-03-06T20:49:48.797Z,96397.84
2019-03-06T20:52:15.206Z,96394.51
2019-03-06T20:54:41.625Z,96398.91
2019-03-06T20:57:08.127Z,96386.97
2019-03-06T20:59:36.380Z,96395.32
2019-03-06T21:02:02.888Z,96389.67
2019-03-06T21:04:29.365Z,96384.73
2019-03-06T21:06:55.947Z,96377.41
2019-03-06T21:09:22.648Z,96368.49
2019-03-06T21:11:49.250Z,96374.93
2019-03-06T21:14:15.656Z,96384.28
2019-03-06T21:16:42.101Z,96370.42
2019-03-06T21:19:08.753Z,96370.09
2019-03-06T21:21:35.292Z,96380.92
2019-03-06T21:24:01.801Z,96368.05
2019-03-06T21:26:28.229Z,96362.98
2019-03-06T21:28:54.524Z,96359.81
2019-03-06T21:31:20.887Z,96362.16
2019-03-06T21:33:47.179Z,96360.22
2019-03-06T21:36:13.507Z,96361.79
2019-03-06T21:38:39.801Z,96354.89
2019-03-06T21:41:06.217Z,96360.42
2019-03-06T21:43:32.547Z,96353.75
2019-03-06T21:45:58.983Z,96349.01
2019-03-06T21:48:25.639Z,96340.89
2019-03-06T21:50:52.223Z,96334.37
2019-03-06T21:53:18.542Z,96338.66
2019-03-06T21:55:44.924Z,96334.27
2019-03-06T21:58:11.377Z,96329.09
2019-03-06T22:00:37.869Z,96327.29
2019-03-06T22:03:04.684Z,96323.61
2019-03-06T22:05:31.183Z,96329.68
2019-03-06T22:07:57.681Z,96325.75
2019-03-06T22:10:24.452Z,96325.52
2019-03-06T22:12:50.941Z,96318.29
2019-03-06T22:15:22.105Z,96315.91
2019-03-06T22:17:48.636Z,96307.13
2019-03-06T22:20:15.477Z,96305.41
2019-03-06T22:22:42.333Z,96303.71
2019-03-06T22:25:14.532Z,96297.18
2019-03-06T22:27:41.051Z,96305.54
2019-03-06T22:30:17.015Z,96299.80
2019-03-06T22:32:43.555Z,96288.84
2019-03-06T22:35:10.344Z,96286.80
2019-03-06T22:37:36.975Z,96279.37
2019-03-06T22:40:08.828Z,96279.59
2019-03-06T22:42:35.425Z,96270.92
2019-03-06T22:45:02.204Z,96262.34
2019-03-06T22:47:28.499Z,96257.73
2019-03-06T22:49:56.304Z,96253.91
2019-03-06T22:52:22.654Z,96260.44
2019-03-06T22:54:49.176Z,96247.25
2019-03-06T22:57:15.563Z,96230.69
2019-03-06T22:59:42.167Z,96225.84
2019-03-06T23:02:09.346Z,96225.61
2019-03-06T23:04:35.920Z,96221.69
2019-03-06T23:07:02.455Z,96219.67
2019-03-06T23:09:28.955Z,96208.85
2019-03-06T23:11:55.415Z,96208.06
2019-03-06T23:14:21.963Z,96202.75
2019-03-06T23:16:49.280Z,96202.28
2019-03-06T23:19:15.615Z,96191.92
2019-03-06T23:21:42.637Z,96184.50
2019-03-06T23:24:08.956Z,96183.84
2019-03-06T23:26:42.527Z,96181.36
2019-03-06T23:29:03.807Z,96184.95
2019-03-06T23:31:30.135Z,96177.97
2019-03-06T23:33:56.792Z,96173.23
2019-03-06T23:36:23.115Z,96157.66
2019-03-06T23:38:49.611Z,96156.10
2019-03-06T23:41:16.041Z,96152.23
2019-03-06T23:43:42.768Z,96140.98
2019-03-06T23:46:09.207Z,96140.20
2019-03-06T23:48:35.710Z,96137.58
2019-03-06T23:51:04.115Z,96141.20
2019-03-06T23:53:32.343Z,96135.88
2019-03-06T23:55:58.764Z,96131.26
2019-03-06T23:58:25.500Z,96129.23
